Time;durP1;ratioP1;P1;durP2;ratioP2;P2;SDS_P1;SDS_P2;PMS_P1;PMS_P2;Temp;Humidity;BMP_temperature;BMP_pressure;BME280_temperature;BME280_humidity;BME280_pressure;Samples;Min_cycle;Max_cycle;Signal;HPM_P1;HPM_P2
2021/12/14 00:00:53;;;;;;;;;;;;;;;;;;5111482;28;822;-61
2021/12/14 00:03:20;;;;;;;;;;;;;;;;;;5111159;28;961;-61
2021/12/14 00:05:46;;;;;;;;;;;;;;;;;;5111664;28;857;-61
2021/12/14 00:08:13;;;;;;;;;;;;;;;;;;5110350;28;1320;-61
2021/12/14 00:13:42;;;;;;;;;;;;;;;;;;5111939;28;653;-61
2021/12/14 00:16:08;;;;;;;;;;;;;;;;;;5111230;28;840;-61
2021/12/14 00:18:34;;;;;;;;;;;;;;;;;;5111843;28;1898;-61
2021/12/14 00:21:05;;;;;;;;;;;;;;;;;;5111037;28;758;-61
2021/12/14 00:26:16;;;;;;;;;;;;;;;;;;5111832;28;716;-61
2021/12/14 00:28:42;;;;;;;;;;;;;;;;;;5111640;28;868;-61
2021/12/14 00:31:10;;;;;;;;;;;;;;;;;;5111393;28;817;-61
2021/12/14 00:33:36;;;;;;;;;;;;;;;;;;5112328;28;836;-61
2021/12/14 00:36:04;;;;;;;;;;;;;;;;;;5111950;28;948;-61
2021/12/14 00:38:30;;;;;;;;;;;;;;;;;;5125994;28;1968;-61
2021/12/14 00:40:58;;;;;;;;;;;;;;;;;;5132518;28;1675;-61
2021/12/14 00:43:24;;;;;;;;;;;;;;;;;;5132460;28;950;-61
2021/12/14 00:45:49;;;;;;;;;;;;;;;;;;5132148;28;974;-61
2021/12/14 00:48:15;;;;;;;;;;;;;;;;;;5132139;28;947;-61
2021/12/14 00:50:56;;;;;;;;;;;;;;;;;;5132737;28;801;-61
2021/12/14 00:53:21;;;;;;;;;;;;;;;;;;5113314;28;1218;-61
2021/12/14 00:55:49;;;;;;;;;;;;;;;;;;5132723;28;951;-62
2021/12/14 00:58:15;;;;;;;;;;;;;;;;;;5130335;28;1906;-62
2021/12/14 01:00:45;;;;;;;;;;;;;;;;;;5135591;27;812;-61
2021/12/14 01:03:11;;;;;;;;;;;;;;;;;;5135729;27;974;-61
2021/12/14 01:05:40;;;;;;;;;;;;;;;;;;5136193;27;851;-62
2021/12/14 01:08:09;;;;;;;;;;;;;;;;;;5135402;27;974;-61
2021/12/14 01:10:38;;;;;;;;;;;;;;;;;;5135443;27;883;-61
2021/12/14 01:13:07;;;;;;;;;;;;;;;;;;5116648;27;1003;-61
2021/12/14 01:16:47;;;;;;;;;;;;;;;;;;5135810;27;914;-61
2021/12/14 01:18:45;;;;;;;;;;;;;;;;;;5121201;27;1954;-61
2021/12/14 01:21:28;;;;;;;;;;;;;;;;;;5134719;27;618;-61
2021/12/14 01:24:02;;;;;;;;;;;;;;;;;;5134448;27;1190;-62
2021/12/14 01:26:30;;;;;;;;;;;;;;;;;;5133473;27;997;-61
2021/12/14 01:28:55;;;;;;;;;;;;;;;;;;5140957;27;1143;-61
2021/12/14 01:31:28;;;;;;;;;;;;;;;;;;5136530;27;1277;-61
2021/12/14 01:34:01;;;;;;;;;;;;;;;;;;5155070;27;1061;-61
2021/12/14 01:36:40;;;;;;;;;;;;;;;;;;5155346;27;2044;-61
2021/12/14 01:41:45;;;;;;;;;;;;;;;;;;5156151;27;768;-61
2021/12/14 01:44:11;;;;;;;;;;;;;;;;;;5154562;27;954;-61
2021/12/14 01:46:40;;;;;;;;;;;;;;;;;;5155074;27;922;-61
2021/12/14 01:49:08;;;;;;;;;;;;;;;;;;5154792;27;860;-61
2021/12/14 01:51:34;;;;;;;;;;;;;;;;;;5154869;27;868;-61
2021/12/14 01:53:59;;;;;;;;;;;;;;;;;;5155100;27;870;-61
2021/12/14 01:56:27;;;;;;;;;;;;;;;;;;5154877;27;989;-61
2021/12/14 01:58:54;;;;;;;;;;;;;;;;;;5155056;27;1905;-61
2021/12/14 02:01:25;;;;;;;;;;;;;;;;;;5155413;27;855;-61
2021/12/14 02:04:00;;;;;;;;;;;;;;;;;;5155157;27;824;-61
2021/12/14 02:06:29;;;;;;;;;;;;;;;;;;5155764;27;818;-61
2021/12/14 02:09:09;;;;;;;;;;;;;;;;;;5155154;27;1313;-61
2021/12/14 02:11:36;;;;;;;;;;;;;;;;;;5135821;27;1262;-61
2021/12/14 02:14:03;;;;;;;;;;;;;;;;;;5155306;27;803;-61
2021/12/14 02:16:29;;;;;;;;;;;;;;;;;;5155251;27;1049;-62
2021/12/14 02:18:58;;;;;;;;;;;;;;;;;;5155820;27;1913;-62
2021/12/14 02:21:23;;;;;;;;;;;;;;;;;;5136310;27;1197;-62
2021/12/14 02:23:51;;;;;;;;;;;;;;;;;;5155129;27;947;-62
2021/12/14 02:26:19;;;;;;;;;;;;;;;;;;5154807;27;882;-61
2021/12/14 02:28:45;;;;;;;;;;;;;;;;;;5155117;27;879;-61
2021/12/14 02:31:13;;;;;;;;;;;;;;;;;;5154441;27;871;-60
2021/12/14 02:33:40;;;;;;;;;;;;;;;;;;5155358;27;867;-60
2021/12/14 02:36:08;;;;;;;;;;;;;;;;;;5153936;27;930;-60
2021/12/14 02:38:33;;;;;;;;;;;;;;;;;;5154395;27;1949;-60
2021/12/14 02:41:01;;;;;;;;;;;;;;;;;;5154594;27;855;-61
2021/12/14 02:43:36;;;;;;;;;;;;;;;;;;5154289;27;902;-59
2021/12/14 02:46:27;;;;;;;;;;;;;;;;;;5135405;27;1615;-60
2021/12/14 02:49:00;;;;;;;;;;;;;;;;;;5149306;27;1874;-61
2021/12/14 02:51:30;;;;;;;;;;;;;;;;;;5153884;27;824;-60
2021/12/14 02:53:59;;;;;;;;;;;;;;;;;;5135742;27;863;-61
2021/12/14 02:56:27;;;;;;;;;;;;;;;;;;5154351;27;1014;-61
2021/12/14 02:58:57;;;;;;;;;;;;;;;;;;5153739;27;1963;-61
2021/12/14 03:01:22;;;;;;;;;;;;;;;;;;5153841;27;927;-61
2021/12/14 03:03:48;;;;;;;;;;;;;;;;;;5154140;27;942;-60
2021/12/14 03:06:19;;;;;;;;;;;;;;;;;;5153739;27;893;-61
2021/12/14 03:08:56;;;;;;;;;;;;;;;;;;5154288;27;1249;-61
2021/12/14 03:11:21;;;;;;;;;;;;;;;;;;5153849;27;918;-61
2021/12/14 03:13:48;;;;;;;;;;;;;;;;;;5154065;27;835;-60
2021/12/14 03:16:16;;;;;;;;;;;;;;;;;;5153183;27;954;-61
2021/12/14 03:18:43;;;;;;;;;;;;;;;;;;5153463;27;1883;-61
2021/12/14 03:21:11;;;;;;;;;;;;;;;;;;5153155;27;982;-60
2021/12/14 03:23:47;;;;;;;;;;;;;;;;;;5152930;27;962;-61
2021/12/14 03:26:14;;;;;;;;;;;;;;;;;;5152590;27;910;-60
2021/12/14 03:28:40;;;;;;;;;;;;;;;;;;5152751;27;887;-61
2021/12/14 03:31:19;;;;;;;;;;;;;;;;;;5153160;27;820;-60
2021/12/14 03:33:47;;;;;;;;;;;;;;;;;;5134668;27;1637;-61
2021/12/14 03:36:16;;;;;;;;;;;;;;;;;;5152750;27;868;-60
2021/12/14 03:38:48;;;;;;;;;;;;;;;;;;5152629;27;1976;-60
2021/12/14 03:41:19;;;;;;;;;;;;;;;;;;5134005;27;1767;-61
2021/12/14 03:43:58;;;;;;;;;;;;;;;;;;5153064;27;951;-61
2021/12/14 03:46:24;;;;;;;;;;;;;;;;;;5152863;27;839;-61
2021/12/14 03:48:49;;;;;;;;;;;;;;;;;;5153305;27;820;-61
2021/12/14 03:51:18;;;;;;;;;;;;;;;;;;5152844;27;829;-61
2021/12/14 03:53:43;;;;;;;;;;;;;;;;;;5134536;27;840;-61
2021/12/14 03:56:09;;;;;;;;;;;;;;;;;;5152384;27;998;-61
2021/12/14 03:58:36;;;;;;;;;;;;;;;;;;5152856;27;1933;-61
2021/12/14 04:01:08;;;;;;;;;;;;;;;;;;5134405;27;911;-61
2021/12/14 04:03:34;;;;;;;;;;;;;;;;;;5134026;27;1397;-60
2021/12/14 04:06:00;;;;;;;;;;;;;;;;;;5153376;27;1010;-61
2021/12/14 04:08:26;;;;;;;;;;;;;;;;;;5133714;27;954;-61
2021/12/14 04:10:52;;;;;;;;;;;;;;;;;;5152790;27;957;-60
2021/12/14 04:13:23;;;;;;;;;;;;;;;;;;5152766;27;879;-60
2021/12/14 04:15:49;;;;;;;;;;;;;;;;;;5134088;27;844;-61
2021/12/14 04:18:14;;;;;;;;;;;;;;;;;;5152087;27;1890;-61
2021/12/14 04:20:41;;;;;;;;;;;;;;;;;;5152557;27;828;-61
2021/12/14 04:23:14;;;;;;;;;;;;;;;;;;5151971;27;805;-61
2021/12/14 04:25:41;;;;;;;;;;;;;;;;;;5152853;27;891;-61
2021/12/14 04:28:10;;;;;;;;;;;;;;;;;;5152528;27;833;-61
2021/12/14 04:30:36;;;;;;;;;;;;;;;;;;5152671;27;797;-61
2021/12/14 04:33:03;;;;;;;;;;;;;;;;;;5152898;27;927;-60
2021/12/14 04:35:31;;;;;;;;;;;;;;;;;;5155296;27;1083;-61
2021/12/14 04:37:59;;;;;;;;;;;;;;;;;;5157028;27;1984;-61
2021/12/14 04:54:06;;;;;;;;;;;;;;;;;;5156930;27;777;-61
2021/12/14 04:56:34;;;;;;;;;;;;;;;;;;5156234;27;1295;-61
2021/12/14 04:59:02;;;;;;;;;;;;;;;;;;5156263;27;1909;-61
2021/12/14 05:01:31;;;;;;;;;;;;;;;;;;5155693;27;978;-61
2021/12/14 05:03:58;;;;;;;;;;;;;;;;;;5156157;27;950;-60
2021/12/14 05:06:31;;;;;;;;;;;;;;;;;;5136759;27;1126;-61
2021/12/14 05:09:21;;;;;;;;;;;;;;;;;;5155888;27;895;-61
2021/12/14 05:11:47;;;;;;;;;;;;;;;;;;5156485;27;867;-62
2021/12/14 05:14:12;;;;;;;;;;;;;;;;;;5136599;27;899;-61
2021/12/14 05:16:39;;;;;;;;;;;;;;;;;;5156048;27;1074;-62
2021/12/14 05:19:06;;;;;;;;;;;;;;;;;;5155677;27;1926;-61
2021/12/14 05:21:36;;;;;;;;;;;;;;;;;;5155661;27;987;-62
2021/12/14 05:24:04;;;;;;;;;;;;;;;;;;5155800;27;1021;-61
2021/12/14 05:26:29;;;;;;;;;;;;;;;;;;5155309;27;851;-62
2021/12/14 05:28:55;;;;;;;;;;;;;;;;;;5155952;27;848;-62
2021/12/14 05:31:20;;;;;;;;;;;;;;;;;;5155302;27;895;-62
2021/12/14 05:33:46;;;;;;;;;;;;;;;;;;5156297;27;653;-61
2021/12/14 05:36:14;;;;;;;;;;;;;;;;;;5156265;27;980;-62
2021/12/14 05:43:05;;;;;;;;;;;;;;;;;;5155589;27;820;-61
2021/12/14 05:43:55;;;;;;;;;;;;;;;;;;5155329;27;899;-61
2021/12/14 05:46:21;;;;;;;;;;;;;;;;;;5154689;27;808;-61
2021/12/14 05:48:46;;;;;;;;;;;;;;;;;;5148151;27;1170;-61
2021/12/14 05:51:11;;;;;;;;;;;;;;;;;;5145843;27;1147;-61
2021/12/14 05:53:41;;;;;;;;;;;;;;;;;;5140911;27;1154;-61
2021/12/14 05:56:09;;;;;;;;;;;;;;;;;;5155511;27;1065;-61
2021/12/14 05:58:35;;;;;;;;;;;;;;;;;;5154404;27;1897;-60
2021/12/14 06:01:02;;;;;;;;;;;;;;;;;;5154743;27;903;-61
2021/12/14 06:03:30;;;;;;;;;;;;;;;;;;5155118;27;899;-61
2021/12/14 06:05:56;;;;;;;;;;;;;;;;;;5155512;27;899;-61
2021/12/14 06:08:25;;;;;;;;;;;;;;;;;;5155148;27;890;-60
2021/12/14 06:10:51;;;;;;;;;;;;;;;;;;5155587;27;1182;-61
2021/12/14 06:13:18;;;;;;;;;;;;;;;;;;5146179;27;1126;-60
2021/12/14 06:15:44;;;;;;;;;;;;;;;;;;5116647;27;821;-61
2021/12/14 06:18:10;;;;;;;;;;;;;;;;;;5134362;27;1970;-60
2021/12/14 06:20:35;;;;;;;;;;;;;;;;;;5134289;27;808;-61
2021/12/14 06:23:00;;;;;;;;;;;;;;;;;;5134352;27;746;-61
2021/12/14 06:25:27;;;;;;;;;;;;;;;;;;5133906;27;906;-61
2021/12/14 06:27:55;;;;;;;;;;;;;;;;;;5134155;27;937;-61
2021/12/14 06:30:23;;;;;;;;;;;;;;;;;;5133763;27;891;-60
2021/12/14 06:32:54;;;;;;;;;;;;;;;;;;5134386;27;867;-60
2021/12/14 06:35:27;;;;;;;;;;;;;;;;;;5133998;27;1055;-61
2021/12/14 06:40:29;;;;;;;;;;;;;;;;;;5133463;27;769;-61
2021/12/14 06:42:56;;;;;;;;;;;;;;;;;;5133997;27;907;-62
2021/12/14 06:45:24;;;;;;;;;;;;;;;;;;5133739;27;887;-61
2021/12/14 06:47:51;;;;;;;;;;;;;;;;;;5134123;27;914;-62
2021/12/14 06:50:19;;;;;;;;;;;;;;;;;;5133958;27;915;-62
2021/12/14 06:52:53;;;;;;;;;;;;;;;;;;5134483;27;1022;-62
2021/12/14 06:55:20;;;;;;;;;;;;;;;;;;5133583;27;958;-61
2021/12/14 06:57:46;;;;;;;;;;;;;;;;;;5133425;27;875;-62
2021/12/14 07:00:11;;;;;;;;;;;;;;;;;;5115065;27;1913;-61
2021/12/14 07:02:36;;;;;;;;;;;;;;;;;;5114697;27;1565;-62
2021/12/14 07:05:03;;;;;;;;;;;;;;;;;;5133601;27;872;-62
2021/12/14 07:07:28;;;;;;;;;;;;;;;;;;5132841;27;812;-60
2021/12/14 07:09:56;;;;;;;;;;;;;;;;;;5133429;27;937;-60
2021/12/14 07:12:24;;;;;;;;;;;;;;;;;;5132080;27;1010;-60
2021/12/14 07:14:50;;;;;;;;;;;;;;;;;;5131979;27;812;-60
2021/12/14 07:17:16;;;;;;;;;;;;;;;;;;5132971;27;835;-60
2021/12/14 07:19:52;;;;;;;;;;;;;;;;;;5132525;27;1961;-60
2021/12/14 07:22:30;;;;;;;;;;;;;;;;;;5114124;27;2248;-61
2021/12/14 07:25:04;;;;;;;;;;;;;;;;;;5132848;27;868;-61
2021/12/14 07:27:31;;;;;;;;;;;;;;;;;;5132583;27;911;-60
2021/12/14 07:30:25;;;;;;;;;;;;;;;;;;5132470;27;971;-60
2021/12/14 07:32:54;;;;;;;;;;;;;;;;;;5113773;27;1173;-61
2021/12/14 07:35:21;;;;;;;;;;;;;;;;;;5113676;27;1218;-60
2021/12/14 07:37:47;;;;;;;;;;;;;;;;;;5132427;27;1368;-61
2021/12/14 07:40:13;;;;;;;;;;;;;;;;;;5132397;27;1905;-60
2021/12/14 07:42:39;;;;;;;;;;;;;;;;;;5131959;27;762;-60
2021/12/14 07:45:06;;;;;;;;;;;;;;;;;;5113871;27;955;-60
2021/12/14 07:47:31;;;;;;;;;;;;;;;;;;5132481;27;785;-60
2021/12/14 07:49:57;;;;;;;;;;;;;;;;;;5133147;27;907;-60
2021/12/14 07:52:24;;;;;;;;;;;;;;;;;;5132481;27;844;-60
2021/12/14 07:54:55;;;;;;;;;;;;;;;;;;5132055;27;895;-60
2021/12/14 07:57:31;;;;;;;;;;;;;;;;;;5131885;27;867;-60
2021/12/14 07:59:56;;;;;;;;;;;;;;;;;;5131864;27;1974;-60
2021/12/14 08:02:23;;;;;;;;;;;;;;;;;;5131939;27;888;-60
2021/12/14 08:05:01;;;;;;;;;;;;;;;;;;5131983;27;844;-60
2021/12/14 08:07:31;;;;;;;;;;;;;;;;;;5131560;27;966;-60
2021/12/14 08:10:13;;;;;;;;;;;;;;;;;;5131361;27;809;-60
2021/12/14 08:12:38;;;;;;;;;;;;;;;;;;5131599;27;900;-60
2021/12/14 08:15:07;;;;;;;;;;;;;;;;;;5131821;27;857;-60
2021/12/14 08:17:32;;;;;;;;;;;;;;;;;;5131360;27;814;-60
2021/12/14 08:19:57;;;;;;;;;;;;;;;;;;5131573;27;1897;-60
2021/12/14 08:22:30;;;;;;;;;;;;;;;;;;5131756;28;935;-60
2021/12/14 08:24:56;;;;;;;;;;;;;;;;;;5112960;28;1370;-60
2021/12/14 08:27:23;;;;;;;;;;;;;;;;;;5132111;28;931;-60
2021/12/14 08:29:50;;;;;;;;;;;;;;;;;;5131637;28;891;-60
2021/12/14 08:32:20;;;;;;;;;;;;;;;;;;5131994;28;962;-60
2021/12/14 08:34:46;;;;;;;;;;;;;;;;;;5132462;28;875;-60
2021/12/14 08:37:11;;;;;;;;;;;;;;;;;;5132224;28;829;-61
2021/12/14 08:39:46;;;;;;;;;;;;;;;;;;5131374;28;1910;-61
2021/12/14 08:42:13;;;;;;;;;;;;;;;;;;5131958;28;792;-60
2021/12/14 08:44:40;;;;;;;;;;;;;;;;;;5131781;28;879;-61
2021/12/14 08:47:08;;;;;;;;;;;;;;;;;;5131822;28;856;-60
2021/12/14 08:49:34;;;;;;;;;;;;;;;;;;5131421;28;848;-60
2021/12/14 08:51:59;;;;;;;;;;;;;;;;;;5131980;28;978;-61
2021/12/14 08:54:27;;;;;;;;;;;;;;;;;;5130422;28;610;-61
2021/12/14 08:57:05;;;;;;;;;;;;;;;;;;5132011;28;974;-61
2021/12/14 08:59:31;;;;;;;;;;;;;;;;;;5132339;27;1893;-61
2021/12/14 09:01:57;;;;;;;;;;;;;;;;;;5131225;27;1178;-61
2021/12/14 09:04:25;;;;;;;;;;;;;;;;;;5151237;27;1217;-61
2021/12/14 09:06:52;;;;;;;;;;;;;;;;;;5151636;27;1262;-61
2021/12/14 09:09:21;;;;;;;;;;;;;;;;;;5151792;27;1516;-61
2021/12/14 09:11:48;;;;;;;;;;;;;;;;;;5151971;27;919;-61
2021/12/14 09:14:14;;;;;;;;;;;;;;;;;;5116567;27;1453;-61
2021/12/14 09:16:41;;;;;;;;;;;;;;;;;;5151481;27;842;-61
2021/12/14 09:19:09;;;;;;;;;;;;;;;;;;5151555;27;1960;-61
2021/12/14 09:21:39;;;;;;;;;;;;;;;;;;5154006;27;808;-61
2021/12/14 09:24:10;;;;;;;;;;;;;;;;;;5155926;27;978;-61
2021/12/14 09:26:39;;;;;;;;;;;;;;;;;;5155052;27;1166;-61
2021/12/14 09:29:05;;;;;;;;;;;;;;;;;;5155734;27;829;-61
2021/12/14 09:31:33;;;;;;;;;;;;;;;;;;5155058;27;875;-61
2021/12/14 09:33:59;;;;;;;;;;;;;;;;;;5155507;27;928;-61
2021/12/14 09:36:25;;;;;;;;;;;;;;;;;;5155274;27;888;-61
2021/12/14 09:38:54;;;;;;;;;;;;;;;;;;5136122;27;1976;-61
2021/12/14 09:41:21;;;;;;;;;;;;;;;;;;5155378;27;895;-61
2021/12/14 09:43:48;;;;;;;;;;;;;;;;;;5155509;27;832;-61
2021/12/14 09:46:14;;;;;;;;;;;;;;;;;;5136888;27;1641;-61
2021/12/14 09:48:47;;;;;;;;;;;;;;;;;;5155387;27;907;-61
2021/12/14 09:51:16;;;;;;;;;;;;;;;;;;5155458;27;883;-61
2021/12/14 09:53:43;;;;;;;;;;;;;;;;;;5154258;27;737;-61
2021/12/14 09:56:10;;;;;;;;;;;;;;;;;;5155681;27;824;-61
2021/12/14 09:58:38;;;;;;;;;;;;;;;;;;5136436;27;1901;-61
2021/12/14 10:01:18;;;;;;;;;;;;;;;;;;5136043;27;1202;-61
2021/12/14 10:03:46;;;;;;;;;;;;;;;;;;5155438;27;1111;-61
2021/12/14 10:06:13;;;;;;;;;;;;;;;;;;5155330;27;871;-61
2021/12/14 10:08:42;;;;;;;;;;;;;;;;;;5155174;27;894;-61
2021/12/14 10:11:08;;;;;;;;;;;;;;;;;;5155683;27;867;-61
2021/12/14 10:13:38;;;;;;;;;;;;;;;;;;5155288;27;935;-61
2021/12/14 10:16:05;;;;;;;;;;;;;;;;;;5155658;27;1055;-61
2021/12/14 10:18:39;;;;;;;;;;;;;;;;;;5154901;27;1893;-61
2021/12/14 10:21:13;;;;;;;;;;;;;;;;;;5155387;27;788;-61
2021/12/14 10:23:40;;;;;;;;;;;;;;;;;;5154611;27;903;-61
2021/12/14 10:26:06;;;;;;;;;;;;;;;;;;5136834;27;903;-61
2021/12/14 10:28:35;;;;;;;;;;;;;;;;;;5154970;27;954;-61
2021/12/14 10:31:03;;;;;;;;;;;;;;;;;;5154933;27;968;-61
2021/12/14 10:33:31;;;;;;;;;;;;;;;;;;5153652;27;861;-61
2021/12/14 10:36:01;;;;;;;;;;;;;;;;;;5155424;27;934;-61
2021/12/14 10:38:34;;;;;;;;;;;;;;;;;;5154900;27;2019;-61
2021/12/14 10:43:49;;;;;;;;;;;;;;;;;;5154480;27;637;-61
2021/12/14 10:46:21;;;;;;;;;;;;;;;;;;5154844;27;873;-61
2021/12/14 10:48:47;;;;;;;;;;;;;;;;;;5154488;27;847;-61
2021/12/14 10:51:14;;;;;;;;;;;;;;;;;;5154564;27;813;-61
2021/12/14 10:53:45;;;;;;;;;;;;;;;;;;5135161;27;1026;-61
2021/12/14 10:56:13;;;;;;;;;;;;;;;;;;5154648;27;1156;-61
2021/12/14 10:58:39;;;;;;;;;;;;;;;;;;5153688;27;1909;-61
2021/12/14 11:01:06;;;;;;;;;;;;;;;;;;5153817;27;816;-61
2021/12/14 11:03:35;;;;;;;;;;;;;;;;;;5153333;27;912;-61
2021/12/14 11:06:02;;;;;;;;;;;;;;;;;;5153737;27;772;-61
2021/12/14 11:08:57;;;;;;;;;;;;;;;;;;5153730;27;827;-61
2021/12/14 11:11:45;;;;;;;;;;;;;;;;;;5153804;27;935;-61
2021/12/14 11:14:13;;;;;;;;;;;;;;;;;;5135012;27;1708;-61
2021/12/14 11:19:38;;;;;;;;;;;;;;;;;;5153565;27;1905;-61
2021/12/14 11:22:07;;;;;;;;;;;;;;;;;;5153615;27;832;-61
2021/12/14 11:24:33;;;;;;;;;;;;;;;;;;5153522;27;1041;-61
2021/12/14 11:26:58;;;;;;;;;;;;;;;;;;5153897;27;934;-61
2021/12/14 11:29:24;;;;;;;;;;;;;;;;;;5153337;27;836;-61
2021/12/14 11:31:51;;;;;;;;;;;;;;;;;;5154052;27;825;-60
2021/12/14 11:34:26;;;;;;;;;;;;;;;;;;5154058;27;915;-61
2021/12/14 11:36:54;;;;;;;;;;;;;;;;;;5153237;27;804;-61
2021/12/14 11:39:27;;;;;;;;;;;;;;;;;;5153084;27;1992;-61
2021/12/14 11:41:54;;;;;;;;;;;;;;;;;;5153106;27;801;-61
2021/12/14 11:44:31;;;;;;;;;;;;;;;;;;5153429;27;827;-61
2021/12/14 11:46:57;;;;;;;;;;;;;;;;;;5134759;27;896;-61
2021/12/14 11:49:24;;;;;;;;;;;;;;;;;;5134489;27;1336;-61
2021/12/14 11:51:50;;;;;;;;;;;;;;;;;;5153030;27;821;-61
2021/12/14 11:54:16;;;;;;;;;;;;;;;;;;5134941;27;868;-61
2021/12/14 11:56:42;;;;;;;;;;;;;;;;;;5153236;27;1116;-61
2021/12/14 11:59:08;;;;;;;;;;;;;;;;;;5153443;27;1902;-61
2021/12/14 12:01:35;;;;;;;;;;;;;;;;;;5134560;27;1703;-61
2021/12/14 12:04:03;;;;;;;;;;;;;;;;;;5153142;27;891;-60
2021/12/14 12:11:48;;;;;;;;;;;;;;;;;;5153338;27;896;-61
2021/12/14 12:14:17;;;;;;;;;;;;;;;;;;5134627;27;836;-60
2021/12/14 12:16:42;;;;;;;;;;;;;;;;;;5153009;27;891;-60
2021/12/14 12:19:14;;;;;;;;;;;;;;;;;;5153056;27;1897;-60
2021/12/14 12:21:41;;;;;;;;;;;;;;;;;;5153184;27;929;-60
2021/12/14 12:24:26;;;;;;;;;;;;;;;;;;5152393;27;911;-60
2021/12/14 12:26:51;;;;;;;;;;;;;;;;;;5152843;27;1882;-61
2021/12/14 12:29:25;;;;;;;;;;;;;;;;;;5134301;27;1100;-60
2021/12/14 12:31:58;;;;;;;;;;;;;;;;;;5152022;27;934;-60
2021/12/14 12:34:33;;;;;;;;;;;;;;;;;;5151785;27;1024;-60
2021/12/14 12:36:58;;;;;;;;;;;;;;;;;;5152931;27;953;-60
2021/12/14 12:39:27;;;;;;;;;;;;;;;;;;5151765;27;1913;-60
2021/12/14 12:41:58;;;;;;;;;;;;;;;;;;5152071;27;1594;-60
2021/12/14 12:44:28;;;;;;;;;;;;;;;;;;5133469;27;1365;-60
2021/12/14 12:46:56;;;;;;;;;;;;;;;;;;5151530;27;808;-60
2021/12/14 12:49:21;;;;;;;;;;;;;;;;;;5151988;27;812;-60
2021/12/14 12:51:47;;;;;;;;;;;;;;;;;;5151907;27;858;-60
2021/12/14 12:54:14;;;;;;;;;;;;;;;;;;5151885;27;892;-60
2021/12/14 12:56:42;;;;;;;;;;;;;;;;;;5155195;27;1980;-60
2021/12/14 12:59:08;;;;;;;;;;;;;;;;;;5156137;27;1902;-60
2021/12/14 13:01:34;;;;;;;;;;;;;;;;;;5156172;27;915;-60
2021/12/14 13:03:59;;;;;;;;;;;;;;;;;;5156094;27;820;-60
2021/12/14 13:06:24;;;;;;;;;;;;;;;;;;5156129;27;899;-60
2021/12/14 13:08:52;;;;;;;;;;;;;;;;;;5156252;27;796;-60
2021/12/14 13:11:31;;;;;;;;;;;;;;;;;;5156448;27;946;-60
2021/12/14 13:13:58;;;;;;;;;;;;;;;;;;5155606;27;891;-60
2021/12/14 13:16:29;;;;;;;;;;;;;;;;;;5155787;27;998;-60
2021/12/14 13:18:54;;;;;;;;;;;;;;;;;;5155612;27;1971;-60
2021/12/14 13:21:22;;;;;;;;;;;;;;;;;;5146265;27;2065;-60
2021/12/14 13:24:17;;;;;;;;;;;;;;;;;;5148653;27;2072;-60
2021/12/14 13:26:51;;;;;;;;;;;;;;;;;;5132770;27;1968;-60
2021/12/14 13:29:19;;;;;;;;;;;;;;;;;;5155777;27;813;-61
2021/12/14 13:31:50;;;;;;;;;;;;;;;;;;5136884;27;1339;-60
2021/12/14 13:34:21;;;;;;;;;;;;;;;;;;5153361;27;1177;-60
2021/12/14 13:36:46;;;;;;;;;;;;;;;;;;5154247;27;919;-60
2021/12/14 13:39:13;;;;;;;;;;;;;;;;;;5154679;27;1972;-60
2021/12/14 13:42:02;;;;;;;;;;;;;;;;;;5155056;27;807;-60
2021/12/14 13:44:32;;;;;;;;;;;;;;;;;;5133933;27;2823;-60
2021/12/14 13:46:59;;;;;;;;;;;;;;;;;;5137548;27;2515;-60
2021/12/14 13:49:25;;;;;;;;;;;;;;;;;;5154940;27;875;-60
2021/12/14 13:51:50;;;;;;;;;;;;;;;;;;5136913;27;3033;-60
2021/12/14 13:54:16;;;;;;;;;;;;;;;;;;5134753;27;821;-60
2021/12/14 13:56:42;;;;;;;;;;;;;;;;;;5138428;27;832;-60
2021/12/14 13:59:08;;;;;;;;;;;;;;;;;;5155021;27;1965;-60
2021/12/14 14:01:41;;;;;;;;;;;;;;;;;;5154695;27;911;-60
2021/12/14 14:04:08;;;;;;;;;;;;;;;;;;5136058;27;1434;-60
2021/12/14 14:06:34;;;;;;;;;;;;;;;;;;5135885;27;1505;-60
2021/12/14 14:09:07;;;;;;;;;;;;;;;;;;5154999;27;912;-60
2021/12/14 14:11:39;;;;;;;;;;;;;;;;;;5155177;27;899;-60
2021/12/14 14:14:09;;;;;;;;;;;;;;;;;;5153939;27;977;-60
2021/12/14 14:16:39;;;;;;;;;;;;;;;;;;5148797;27;756;-60
2021/12/14 14:19:07;;;;;;;;;;;;;;;;;;5133206;27;2711;-60
2021/12/14 14:21:32;;;;;;;;;;;;;;;;;;5143000;27;3009;-60
2021/12/14 14:23:58;;;;;;;;;;;;;;;;;;5136225;27;832;-60
2021/12/14 14:26:38;;;;;;;;;;;;;;;;;;5134260;27;816;-61
2021/12/14 14:29:05;;;;;;;;;;;;;;;;;;5133869;27;891;-61
2021/12/14 14:31:30;;;;;;;;;;;;;;;;;;5133434;27;975;-60
2021/12/14 14:33:56;;;;;;;;;;;;;;;;;;5133788;27;930;-61
2021/12/14 14:36:21;;;;;;;;;;;;;;;;;;5133742;27;875;-60
2021/12/14 14:38:48;;;;;;;;;;;;;;;;;;5114596;27;1968;-60
2021/12/14 14:41:14;;;;;;;;;;;;;;;;;;5133587;27;1057;-60
2021/12/14 14:43:57;;;;;;;;;;;;;;;;;;5133311;27;883;-60
2021/12/14 14:46:37;;;;;;;;;;;;;;;;;;5133420;27;843;-61
2021/12/14 14:49:07;;;;;;;;;;;;;;;;;;5133099;27;955;-61
2021/12/14 14:51:53;;;;;;;;;;;;;;;;;;5133414;27;995;-61
2021/12/14 14:54:41;;;;;;;;;;;;;;;;;;5133002;27;788;-61
2021/12/14 14:57:06;;;;;;;;;;;;;;;;;;5092114;27;1202;-61
2021/12/14 14:59:32;;;;;;;;;;;;;;;;;;5133324;27;1897;-62
2021/12/14 15:01:57;;;;;;;;;;;;;;;;;;5133118;27;986;-61
2021/12/14 15:04:22;;;;;;;;;;;;;;;;;;5133103;27;910;-61
2021/12/14 15:06:48;;;;;;;;;;;;;;;;;;5133160;27;1017;-61
2021/12/14 15:09:20;;;;;;;;;;;;;;;;;;5133265;27;757;-61
2021/12/14 15:11:53;;;;;;;;;;;;;;;;;;5133180;27;1023;-61
2021/12/14 15:14:27;;;;;;;;;;;;;;;;;;5132804;27;855;-62
2021/12/14 15:16:57;;;;;;;;;;;;;;;;;;5132765;27;848;-62
2021/12/14 15:19:28;;;;;;;;;;;;;;;;;;5132286;27;1983;-62
2021/12/14 15:21:55;;;;;;;;;;;;;;;;;;5133023;27;965;-61
2021/12/14 15:24:36;;;;;;;;;;;;;;;;;;5132282;27;918;-61
2021/12/14 15:27:10;;;;;;;;;;;;;;;;;;5131934;27;2565;-61
2021/12/14 15:29:44;;;;;;;;;;;;;;;;;;5132442;27;871;-61
2021/12/14 15:32:12;;;;;;;;;;;;;;;;;;5132676;27;868;-61
2021/12/14 15:34:56;;;;;;;;;;;;;;;;;;5132310;27;941;-61
2021/12/14 15:37:31;;;;;;;;;;;;;;;;;;5132114;27;848;-61
2021/12/14 15:39:57;;;;;;;;;;;;;;;;;;5132159;27;1975;-61
2021/12/14 15:42:22;;;;;;;;;;;;;;;;;;5132305;27;879;-61
2021/12/14 15:44:49;;;;;;;;;;;;;;;;;;5114626;27;822;-61
2021/12/14 15:47:15;;;;;;;;;;;;;;;;;;5133199;27;832;-61
2021/12/14 15:49:40;;;;;;;;;;;;;;;;;;5130982;27;1256;-61
2021/12/14 15:52:16;;;;;;;;;;;;;;;;;;5131166;27;2369;-61
2021/12/14 15:54:43;;;;;;;;;;;;;;;;;;5132340;27;877;-61
2021/12/14 15:57:12;;;;;;;;;;;;;;;;;;5132314;27;975;-61
2021/12/14 15:59:39;;;;;;;;;;;;;;;;;;5132336;27;1913;-61
2021/12/14 16:02:09;;;;;;;;;;;;;;;;;;5132392;27;873;-61
2021/12/14 16:04:38;;;;;;;;;;;;;;;;;;5132882;27;876;-61
2021/12/14 16:07:04;;;;;;;;;;;;;;;;;;5132594;27;811;-61
2021/12/14 16:09:31;;;;;;;;;;;;;;;;;;5132179;27;759;-61
2021/12/14 16:15:11;;;;;;;;;;;;;;;;;;5132596;27;816;-61
2021/12/14 16:17:39;;;;;;;;;;;;;;;;;;5114093;28;1407;-61
2021/12/14 16:20:07;;;;;;;;;;;;;;;;;;5132339;27;1917;-61
2021/12/14 16:22:34;;;;;;;;;;;;;;;;;;5131604;27;2625;-61
2021/12/14 16:25:06;;;;;;;;;;;;;;;;;;5133507;28;809;-61
2021/12/14 16:27:31;;;;;;;;;;;;;;;;;;5132546;28;1009;-61
2021/12/14 16:29:57;;;;;;;;;;;;;;;;;;5133234;27;883;-61
2021/12/14 16:32:23;;;;;;;;;;;;;;;;;;5136341;27;887;-61
2021/12/14 16:34:49;;;;;;;;;;;;;;;;;;5136809;27;884;-61
2021/12/14 16:37:16;;;;;;;;;;;;;;;;;;5136531;27;814;-61
2021/12/14 16:39:43;;;;;;;;;;;;;;;;;;5135848;27;1975;-61
2021/12/14 16:42:26;;;;;;;;;;;;;;;;;;5135776;27;882;-61
2021/12/14 16:44:54;;;;;;;;;;;;;;;;;;5117059;27;863;-61
2021/12/14 16:47:25;;;;;;;;;;;;;;;;;;5135672;27;833;-61
2021/12/14 16:49:53;;;;;;;;;;;;;;;;;;5136111;27;813;-61
2021/12/14 16:52:21;;;;;;;;;;;;;;;;;;5135608;27;820;-62
2021/12/14 16:54:48;;;;;;;;;;;;;;;;;;5135582;27;753;-61
2021/12/14 16:57:16;;;;;;;;;;;;;;;;;;5099853;27;1218;-61
2021/12/14 16:59:44;;;;;;;;;;;;;;;;;;5135235;27;1901;-61
2021/12/14 17:02:12;;;;;;;;;;;;;;;;;;5135726;27;789;-61
2021/12/14 17:04:39;;;;;;;;;;;;;;;;;;5135382;27;1098;-61
2021/12/14 17:07:07;;;;;;;;;;;;;;;;;;5135394;27;883;-61
2021/12/14 17:09:33;;;;;;;;;;;;;;;;;;5135443;27;824;-61
2021/12/14 17:11:58;;;;;;;;;;;;;;;;;;5116777;27;1195;-61
2021/12/14 17:14:26;;;;;;;;;;;;;;;;;;5135112;27;889;-60
2021/12/14 17:16:56;;;;;;;;;;;;;;;;;;5134787;27;813;-61
2021/12/14 17:19:21;;;;;;;;;;;;;;;;;;5135138;27;1909;-60
2021/12/14 17:21:53;;;;;;;;;;;;;;;;;;5153614;27;2974;-61
2021/12/14 17:24:20;;;;;;;;;;;;;;;;;;5156086;27;901;-61
2021/12/14 17:26:49;;;;;;;;;;;;;;;;;;5156044;27;965;-61
2021/12/14 17:29:23;;;;;;;;;;;;;;;;;;5156228;27;781;-60
2021/12/14 17:31:56;;;;;;;;;;;;;;;;;;5155816;27;907;-61
2021/12/14 17:34:23;;;;;;;;;;;;;;;;;;5155678;27;908;-61
2021/12/14 17:36:50;;;;;;;;;;;;;;;;;;5155691;27;1168;-61
2021/12/14 17:39:19;;;;;;;;;;;;;;;;;;5136853;27;1905;-61
2021/12/14 17:41:47;;;;;;;;;;;;;;;;;;5155115;27;801;-61
2021/12/14 17:44:18;;;;;;;;;;;;;;;;;;5155495;27;928;-61
2021/12/14 17:46:55;;;;;;;;;;;;;;;;;;5137356;27;880;-61
2021/12/14 17:49:21;;;;;;;;;;;;;;;;;;5155284;27;836;-61
2021/12/14 17:51:53;;;;;;;;;;;;;;;;;;5155515;27;986;-61
2021/12/14 17:54:33;;;;;;;;;;;;;;;;;;5155509;27;848;-61
2021/12/14 17:57:10;;;;;;;;;;;;;;;;;;5156403;27;882;-61
2021/12/14 17:59:38;;;;;;;;;;;;;;;;;;5155400;27;1901;-61
2021/12/14 18:02:03;;;;;;;;;;;;;;;;;;5155974;27;843;-61
2021/12/14 18:04:29;;;;;;;;;;;;;;;;;;5137588;27;832;-61
2021/12/14 18:06:55;;;;;;;;;;;;;;;;;;5155564;27;860;-61
2021/12/14 18:09:24;;;;;;;;;;;;;;;;;;5137133;27;847;-61